Main page
METAR-TAF:

Airports :

Current weather observation

The report was made 1 hour and 14 minutes ago, at 11:00 UTC
Wind 8 kt from the East, varying between Northeast and East/Southeast
Temperature 38°C
Humidity 42%
Pressure 998 hPa
Visibility: 8000 m

METAR: OTBD 301100Z 08008KT 040V110 8000 NSC 38/23 Q0998 NOSIG

Time: 12:14 (12:14 UTC)

Forecast

The report was made 1 hour and 14 minutes ago, at 11:00 UTC
Forecast valid from 30 at 12 UTC to 01 at 18 UTC
Wind 8 kt from the East
Visibility: 8000 m
Becoming
from 30 at 17 UTC to 30 at 19 UTC
Wind 2 kt from variable directions
Probability 30% :
Temporary
from 30 at 21 UTC to 01 at 03 UTC
Visibility: 5000 m
haze
Becoming
from 01 at 05 UTC to 01 at 07 UTC
Wind 13 kt from the North

TAF: OTBD 301100Z 3012/0118 08008KT 8000 NSC BECMG 3017/3019 VRB02KT PROB30 TEMPO 3021/0103 5000 HZ BECMG 0105/0107 35013KT

METAR-TAF

Weather observations and forecasts of more than 4000 airports (METAR and TAF reports).

The available stations are represented by yellow and red dots on the map.

Hover mouse over dot to see the name of the station.

Then click to see weather observations and forecasts.

To change the map : click on the green buttons with a black cross to zoom in, on the green button with a dash to zoom out, or on the green arrows for adjacent maps.


METAR-TAF: